Time;durP1;ratioP1;P1;durP2;ratioP2;P2;SDS_P1;SDS_P2;PMS_P1;PMS_P2;Temp;Humidity;BMP_temperature;BMP_pressure;BME280_temperature;BME280_humidity;BME280_pressure;Samples;Min_cycle;Max_cycle;Signal;HPM_P1;HPM_P2
2023/07/28 00:01:42;;;;;;;30.10;14.10;;;18.30;99.90;;;;;;5032120;28;20103;-64
2023/07/28 00:04:09;;;;;;;24.77;13.82;;;18.30;99.90;;;;;;5025298;28;20970;-64
2023/07/28 00:06:35;;;;;;;24.45;12.40;;;18.20;99.90;;;;;;5031949;28;20091;-64
2023/07/28 00:09:00;;;;;;;23.98;12.57;;;18.20;99.90;;;;;;5023559;28;20045;-64
2023/07/28 00:11:26;;;;;;;29.52;12.75;;;18.20;99.90;;;;;;5020503;28;20124;-64
2023/07/28 00:13:51;;;;;;;26.65;13.27;;;18.20;99.90;;;;;;5028975;28;20037;-64
2023/07/28 00:16:17;;;;;;;25.63;12.70;;;18.20;99.90;;;;;;5024624;28;20038;-64
2023/07/28 00:18:43;;;;;;;25.20;12.25;;;18.20;99.90;;;;;;5018183;28;20088;-65
2023/07/28 00:21:08;;;;;;;23.92;11.48;;;18.20;99.90;;;;;;5031016;28;20045;-64
2023/07/28 00:23:34;;;;;;;27.30;13.15;;;18.20;99.90;;;;;;5018753;28;20040;-64
2023/07/28 00:25:59;;;;;;;22.38;11.90;;;18.20;99.90;;;;;;5022330;28;20048;-65
2023/07/28 00:28:25;;;;;;;20.40;11.57;;;18.20;99.90;;;;;;5024559;28;20053;-64
2023/07/28 00:30:51;;;;;;;22.35;13.10;;;18.20;99.90;;;;;;5023910;28;20083;-64
2023/07/28 00:33:17;;;;;;;22.88;12.05;;;18.20;99.90;;;;;;5032814;28;20086;-64
2023/07/28 00:35:42;;;;;;;22.60;12.25;;;18.20;99.90;;;;;;5021120;28;20060;-64
2023/07/28 00:38:09;;;;;;;21.95;12.35;;;18.20;99.90;;;;;;5018641;28;20042;-65
2023/07/28 00:40:35;;;;;;;26.83;12.50;;;18.20;99.90;;;;;;5027485;28;20565;-64
2023/07/28 00:43:01;;;;;;;26.77;13.07;;;18.20;99.90;;;;;;5015280;28;20484;-64
2023/07/28 00:45:27;;;;;;;24.95;13.40;;;18.20;99.90;;;;;;5014852;28;20052;-64
2023/07/28 00:47:53;;;;;;;24.98;12.50;;;18.20;99.90;;;;;;5031031;28;20491;-64
2023/07/28 00:50:19;;;;;;;21.95;12.13;;;18.20;99.90;;;;;;5017370;28;20057;-64
2023/07/28 00:52:46;;;;;;;26.15;12.95;;;18.20;99.90;;;;;;5024616;28;20041;-64
2023/07/28 00:55:12;;;;;;;25.02;14.07;;;18.20;99.90;;;;;;5022079;28;20045;-65
2023/07/28 00:57:39;;;;;;;29.13;13.23;;;18.20;99.90;;;;;;5026303;28;20103;-65
2023/07/28 01:00:05;;;;;;;28.48;13.48;;;18.20;99.90;;;;;;5027804;28;20049;-64
2023/07/28 01:02:31;;;;;;;30.45;13.98;;;18.20;99.90;;;;;;5023827;28;20372;-64
2023/07/28 01:04:57;;;;;;;26.20;13.98;;;18.20;99.90;;;;;;5028938;28;20095;-64
2023/07/28 01:07:38;;;;;;;25.13;13.20;;;18.20;99.90;;;;;;5033809;28;20036;-64
2023/07/28 01:10:26;;;;;;;26.73;13.43;;;18.20;99.90;;;;;;5019336;28;20077;-64
2023/07/28 01:12:51;;;;;;;29.10;13.38;;;18.10;99.90;;;;;;5023705;28;20084;-64
2023/07/28 01:15:17;;;;;;;30.33;13.13;;;18.20;99.90;;;;;;5027238;28;20033;-64
2023/07/28 01:17:43;;;;;;;30.92;13.90;;;18.20;99.90;;;;;;5028075;28;20049;-65
2023/07/28 01:20:10;;;;;;;27.17;14.18;;;18.20;99.90;;;;;;5025630;28;20100;-64
2023/07/28 01:22:56;;;;;;;30.77;14.35;;;18.20;99.90;;;;;;5020207;28;20052;-64
2023/07/28 01:25:25;;;;;;;31.80;14.88;;;18.20;99.90;;;;;;5024311;28;20046;-64
2023/07/28 01:27:53;;;;;;;29.65;14.93;;;18.20;99.90;;;;;;5027430;28;20043;-64
2023/07/28 01:30:20;;;;;;;31.23;15.30;;;18.20;99.90;;;;;;5030060;28;20369;-65
2023/07/28 01:32:47;;;;;;;33.65;15.18;;;18.20;99.90;;;;;;5028545;28;20040;-65
2023/07/28 01:35:13;;;;;;;32.05;16.00;;;18.20;99.90;;;;;;5029112;28;20041;-65
2023/07/28 01:37:39;;;;;;;40.08;16.58;;;18.10;99.90;;;;;;5026807;28;20036;-64
2023/07/28 01:40:05;;;;;;;34.25;15.55;;;18.10;99.90;;;;;;5023669;28;20404;-64
2023/07/28 01:42:30;;;;;;;35.05;15.93;;;18.20;99.90;;;;;;5030836;28;20041;-64
2023/07/28 01:44:56;;;;;;;37.15;16.42;;;18.20;99.90;;;;;;5029196;28;20048;-65
2023/07/28 01:47:21;;;;;;;37.80;16.85;;;18.20;99.90;;;;;;5017692;28;20030;-64
2023/07/28 01:49:47;;;;;;;37.08;16.65;;;18.20;99.90;;;;;;5012871;28;20476;-64
2023/07/28 01:52:13;;;;;;;38.15;17.52;;;18.10;99.90;;;;;;5014968;28;20029;-64
2023/07/28 01:54:38;;;;;;;41.88;16.85;;;18.20;99.90;;;;;;5027391;28;20042;-64
2023/07/28 01:57:04;;;;;;;33.20;16.02;;;18.20;99.90;;;;;;5022826;28;20041;-64
2023/07/28 01:59:30;;;;;;;35.58;16.55;;;18.20;99.90;;;;;;5012358;28;20488;-65
2023/07/28 02:01:55;;;;;;;36.22;15.98;;;18.20;99.90;;;;;;5024549;28;20064;-64
2023/07/28 02:04:21;;;;;;;36.40;17.20;;;18.20;99.90;;;;;;5018280;28;20044;-64
2023/07/28 02:06:47;;;;;;;37.45;16.73;;;18.20;99.90;;;;;;5020889;28;20534;-64
2023/07/28 02:09:12;;;;;;;31.08;15.63;;;18.20;99.90;;;;;;5016986;28;20056;-65
2023/07/28 02:11:38;;;;;;;35.03;16.13;;;18.20;99.90;;;;;;5014253;28;20056;-64
2023/07/28 02:14:04;;;;;;;35.45;15.60;;;18.20;99.90;;;;;;5020662;28;20042;-64
2023/07/28 02:16:30;;;;;;;36.00;16.00;;;18.20;99.90;;;;;;5025344;28;20396;-64
2023/07/28 02:18:56;;;;;;;29.13;15.00;;;18.20;99.90;;;;;;5022815;28;20037;-64
2023/07/28 02:21:21;;;;;;;35.28;16.38;;;18.20;99.90;;;;;;5031145;28;20048;-64
2023/07/28 02:23:49;;;;;;;36.03;16.08;;;18.20;99.90;;;;;;5026149;28;20062;-64
2023/07/28 02:26:14;;;;;;;35.45;15.77;;;18.20;99.90;;;;;;5024393;28;20096;-64
2023/07/28 02:28:40;;;;;;;33.22;15.48;;;18.20;99.90;;;;;;5017552;28;20041;-64
2023/07/28 02:31:06;;;;;;;34.28;16.50;;;18.20;99.90;;;;;;5027839;28;20037;-65
2023/07/28 02:33:35;;;;;;;28.58;15.20;;;18.20;99.90;;;;;;5029556;28;20069;-64
2023/07/28 02:36:01;;;;;;;31.73;15.30;;;18.20;99.90;;;;;;5028207;28;20372;-64
2023/07/28 02:38:26;;;;;;;30.40;15.77;;;18.20;99.90;;;;;;5012038;28;20084;-64
2023/07/28 02:40:52;;;;;;;36.80;16.13;;;18.20;99.90;;;;;;5019908;28;20543;-64
2023/07/28 02:43:17;;;;;;;31.98;14.75;;;18.20;99.90;;;;;;5019473;28;20072;-64
2023/07/28 02:45:43;;;;;;;33.70;15.50;;;18.20;99.90;;;;;;5021646;28;20049;-65
2023/07/28 02:48:09;;;;;;;28.08;14.30;;;18.20;99.90;;;;;;5024634;28;20037;-64
2023/07/28 02:50:34;;;;;;;29.33;14.98;;;18.20;99.90;;;;;;5029205;28;20435;-64
2023/07/28 02:53:00;;;;;;;32.17;15.18;;;18.20;99.90;;;;;;5023542;28;20472;-65
2023/07/28 02:55:25;;;;;;;30.83;15.25;;;18.20;99.90;;;;;;5031355;28;20037;-64
2023/07/28 02:57:51;;;;;;;32.78;15.50;;;18.20;99.90;;;;;;5028947;28;20037;-64
2023/07/28 03:00:17;;;;;;;36.40;15.32;;;18.20;99.90;;;;;;5019804;28;20044;-64
2023/07/28 03:02:42;;;;;;;26.52;13.55;;;18.20;99.90;;;;;;5015563;28;20128;-64
2023/07/28 03:05:08;;;;;;;33.17;15.30;;;18.20;99.90;;;;;;5011344;28;20046;-64
2023/07/28 03:07:34;;;;;;;29.02;15.18;;;18.20;99.90;;;;;;5020929;28;20042;-64
2023/07/28 03:09:59;;;;;;;32.58;15.45;;;18.20;99.90;;;;;;5028956;28;20057;-64
2023/07/28 03:12:25;;;;;;;32.75;15.00;;;18.20;99.90;;;;;;5024478;28;20045;-65
2023/07/28 03:14:50;;;;;;;34.22;15.45;;;18.20;99.90;;;;;;5028181;28;20381;-64
2023/07/28 03:17:16;;;;;;;29.52;14.65;;;18.20;99.90;;;;;;5019057;28;20056;-65
2023/07/28 03:19:42;;;;;;;33.40;15.05;;;18.20;99.90;;;;;;5022875;28;20041;-64
2023/07/28 03:22:07;;;;;;;27.38;14.70;;;18.20;99.90;;;;;;5026815;28;20037;-64
2023/07/28 03:24:33;;;;;;;33.03;14.82;;;18.20;99.90;;;;;;5024451;28;20106;-64
2023/07/28 03:26:58;;;;;;;30.45;14.98;;;18.20;99.90;;;;;;5022615;28;20046;-65
2023/07/28 03:29:24;;;;;;;33.03;14.90;;;18.20;99.90;;;;;;5030512;28;20084;-64
2023/07/28 03:31:49;;;;;;;35.00;15.30;;;18.20;99.90;;;;;;5026208;28;20520;-64
2023/07/28 03:34:15;;;;;;;37.20;15.55;;;18.20;99.90;;;;;;5015621;28;20042;-64
2023/07/28 03:36:41;;;;;;;36.40;15.85;;;18.20;99.90;;;;;;5031816;28;20083;-64
2023/07/28 03:39:06;;;;;;;27.85;14.48;;;18.20;99.90;;;;;;5015997;28;20038;-64
2023/07/28 03:41:32;;;;;;;32.63;15.63;;;18.20;99.90;;;;;;5023087;28;20044;-64
2023/07/28 03:43:58;;;;;;;33.83;15.05;;;18.20;99.90;;;;;;5016696;28;20507;-64
2023/07/28 03:46:23;;;;;;;31.35;14.43;;;18.20;99.90;;;;;;5028802;28;20033;-64
2023/07/28 03:48:49;;;;;;;28.02;15.93;;;18.20;99.90;;;;;;5030646;28;20498;-64
2023/07/28 03:51:14;;;;;;;35.00;15.38;;;18.20;99.90;;;;;;5033143;28;20136;-65
2023/07/28 03:53:40;;;;;;;33.03;15.50;;;18.20;99.90;;;;;;5027273;28;20061;-64
2023/07/28 03:56:06;;;;;;;32.35;15.18;;;18.20;99.90;;;;;;5031561;28;20038;-64
2023/07/28 03:58:31;;;;;;;29.67;14.98;;;18.20;99.90;;;;;;5029879;28;20041;-64
2023/07/28 04:00:57;;;;;;;31.95;14.40;;;18.20;99.90;;;;;;5032270;28;20034;-64
2023/07/28 04:03:22;;;;;;;32.97;15.07;;;18.20;99.90;;;;;;5029810;28;20108;-65
2023/07/28 04:05:48;;;;;;;35.10;14.65;;;18.20;99.90;;;;;;5031573;28;20046;-64
2023/07/28 04:08:14;;;;;;;31.08;15.68;;;18.20;99.90;;;;;;5026079;28;20045;-64
2023/07/28 04:10:39;;;;;;;28.70;13.93;;;18.20;99.90;;;;;;5031828;28;20116;-65
2023/07/28 04:13:05;;;;;;;31.33;15.30;;;18.20;99.90;;;;;;5031033;28;20364;-64
2023/07/28 04:15:30;;;;;;;30.83;15.20;;;18.20;99.90;;;;;;5031476;28;20038;-64
2023/07/28 04:17:56;;;;;;;31.80;15.10;;;18.20;99.90;;;;;;5022632;28;20029;-65
2023/07/28 04:20:21;;;;;;;28.38;15.38;;;18.20;99.90;;;;;;5030242;28;20562;-65
2023/07/28 04:22:47;;;;;;;28.35;15.15;;;18.20;99.90;;;;;;5032303;28;20128;-65
2023/07/28 04:25:13;;;;;;;32.75;14.88;;;18.30;99.90;;;;;;5033725;28;20042;-64
2023/07/28 04:27:39;;;;;;;36.40;15.13;;;18.20;99.90;;;;;;5030753;28;20042;-64
2023/07/28 04:30:05;;;;;;;28.00;14.15;;;18.30;99.90;;;;;;5027212;28;20452;-64
2023/07/28 04:32:31;;;;;;;34.40;15.48;;;18.20;99.90;;;;;;5032091;28;20041;-65
2023/07/28 04:34:56;;;;;;;31.25;15.05;;;18.20;99.90;;;;;;5016444;28;20496;-64
2023/07/28 04:37:22;;;;;;;31.35;15.00;;;18.30;99.90;;;;;;5033542;28;20112;-64
2023/07/28 04:39:48;;;;;;;32.72;15.15;;;18.30;99.90;;;;;;5035940;28;20038;-64
2023/07/28 04:42:13;;;;;;;31.20;15.73;;;18.30;99.90;;;;;;5030722;28;20447;-64
2023/07/28 04:44:40;;;;;;;29.40;15.10;;;18.30;99.90;;;;;;5032019;28;20384;-64
2023/07/28 04:47:06;;;;;;;29.92;14.02;;;18.30;99.90;;;;;;5032578;28;20438;-64
2023/07/28 04:49:31;;;;;;;32.63;15.48;;;18.30;99.90;;;;;;5031757;28;20075;-64
2023/07/28 04:51:57;;;;;;;31.95;15.55;;;18.30;99.90;;;;;;5016907;28;20045;-64
2023/07/28 04:54:23;;;;;;;32.65;14.57;;;18.30;99.90;;;;;;5023955;28;20034;-64
2023/07/28 04:56:51;;;;;;;27.00;14.90;;;18.30;99.90;;;;;;5021102;28;20056;-64
2023/07/28 04:59:16;;;;;;;32.10;15.07;;;18.20;99.90;;;;;;5023660;28;20094;-64
2023/07/28 05:01:42;;;;;;;32.05;15.98;;;18.30;99.90;;;;;;5024819;28;20121;-63
2023/07/28 05:04:07;;;;;;;37.22;15.15;;;18.30;99.90;;;;;;5024023;28;20172;-64
2023/07/28 05:06:33;;;;;;;30.73;14.55;;;18.30;99.90;;;;;;5017282;28;20183;-64
2023/07/28 05:08:58;;;;;;;32.35;14.55;;;18.30;99.90;;;;;;5031198;28;20034;-64
2023/07/28 05:11:24;;;;;;;32.17;14.50;;;18.30;99.90;;;;;;5027486;28;20041;-64
2023/07/28 05:13:50;;;;;;;30.13;15.63;;;18.30;99.90;;;;;;5026029;28;20465;-64
2023/07/28 05:16:15;;;;;;;31.52;14.68;;;18.30;99.90;;;;;;5026289;28;20114;-64
2023/07/28 05:18:42;;;;;;;27.08;14.45;;;18.30;99.90;;;;;;5026284;28;20103;-64
2023/07/28 05:21:08;;;;;;;31.45;14.55;;;18.30;99.90;;;;;;5024415;28;20954;-64
2023/07/28 05:23:34;;;;;;;29.05;14.57;;;18.30;99.90;;;;;;5025523;28;20061;-64
2023/07/28 05:25:59;;;;;;;31.30;14.82;;;18.40;99.90;;;;;;5026953;28;20065;-64
2023/07/28 05:28:25;;;;;;;30.08;15.70;;;18.40;99.90;;;;;;5025781;28;20050;-64
2023/07/28 05:30:51;;;;;;;33.78;15.85;;;18.40;99.90;;;;;;5019913;28;20522;-64
2023/07/28 05:33:16;;;;;;;34.03;15.20;;;18.40;99.90;;;;;;5030527;22;20090;-69
2023/07/28 05:35:42;;;;;;;29.20;14.77;;;18.30;99.90;;;;;;5021355;28;20039;-69
2023/07/28 05:38:07;;;;;;;31.25;15.25;;;18.40;99.90;;;;;;5020674;28;20484;-69
2023/07/28 05:40:33;;;;;;;31.63;14.95;;;18.40;99.90;;;;;;5023557;28;20041;-69
2023/07/28 05:42:59;;;;;;;33.65;13.88;;;18.40;99.90;;;;;;5018713;28;20125;-69
2023/07/28 05:45:24;;;;;;;32.58;14.98;;;18.40;99.90;;;;;;5051864;28;20037;-68
2023/07/28 05:47:50;;;;;;;29.65;15.00;;;18.40;99.90;;;;;;5032122;28;20491;-68
2023/07/28 05:50:15;;;;;;;34.53;15.98;;;18.40;99.90;;;;;;5024205;28;20041;-69
2023/07/28 05:52:41;;;;;;;31.88;15.30;;;18.40;99.90;;;;;;5040972;28;20493;-68
2023/07/28 05:55:07;;;;;;;36.25;15.52;;;18.40;99.90;;;;;;5043473;28;20498;-68
2023/07/28 05:57:33;;;;;;;30.02;15.00;;;18.40;99.90;;;;;;5049031;28;20041;-68
2023/07/28 05:59:58;;;;;;;34.42;16.20;;;18.40;99.90;;;;;;5030845;28;20055;-68
2023/07/28 06:02:24;;;;;;;33.40;15.38;;;18.40;99.90;;;;;;5038135;28;20514;-68
2023/07/28 06:04:49;;;;;;;33.08;15.70;;;18.50;99.90;;;;;;5025878;28;20069;-69
2023/07/28 06:07:15;;;;;;;34.53;16.10;;;18.40;99.90;;;;;;5032264;28;20037;-68
2023/07/28 06:09:41;;;;;;;32.22;15.55;;;18.40;99.90;;;;;;5023680;28;21665;-68
2023/07/28 06:12:06;;;;;;;32.80;16.52;;;18.40;99.90;;;;;;5032838;28;20037;-68
2023/07/28 06:14:32;;;;;;;30.48;15.50;;;18.50;99.90;;;;;;5028733;28;20033;-68
2023/07/28 06:16:58;;;;;;;35.28;15.35;;;18.50;99.90;;;;;;5029617;28;20045;-68
2023/07/28 06:19:23;;;;;;;35.92;16.42;;;18.50;99.90;;;;;;5028104;28;20079;-68
2023/07/28 06:21:53;;;;;;;28.80;15.65;;;18.60;99.90;;;;;;5042761;28;20142;-68
2023/07/28 06:24:18;;;;;;;27.45;14.32;;;18.60;99.90;;;;;;5031219;28;20034;-68
2023/07/28 06:26:44;;;;;;;29.02;14.85;;;18.60;99.90;;;;;;5030980;28;20116;-68
2023/07/28 06:29:10;;;;;;;26.98;14.75;;;18.70;99.90;;;;;;5029367;28;20503;-68
2023/07/28 06:31:35;;;;;;;22.90;15.13;;;18.70;99.90;;;;;;5034410;28;20115;-68
2023/07/28 06:34:01;;;;;;;28.27;14.35;;;18.80;99.90;;;;;;5045306;28;20116;-68
2023/07/28 06:36:27;;;;;;;27.08;13.80;;;18.80;99.90;;;;;;5031469;28;20124;-68
2023/07/28 06:38:55;;;;;;;25.15;13.88;;;18.90;99.90;;;;;;5028236;28;20112;-68
2023/07/28 06:41:21;;;;;;;21.73;13.07;;;18.90;99.90;;;;;;5028889;28;20041;-68
2023/07/28 06:43:48;;;;;;;23.77;13.48;;;18.90;99.90;;;;;;5029415;28;20037;-69
2023/07/28 06:46:14;;;;;;;28.92;13.52;;;19.00;99.90;;;;;;5018247;28;20048;-69
2023/07/28 06:48:40;;;;;;;25.35;13.75;;;19.00;99.90;;;;;;5029370;28;20045;-69
2023/07/28 06:51:06;;;;;;;27.40;13.52;;;19.10;99.90;;;;;;5031711;28;20037;-69
2023/07/28 06:53:32;;;;;;;24.45;14.13;;;19.10;99.90;;;;;;5029370;28;20037;-69
2023/07/28 06:55:58;;;;;;;21.33;13.52;;;19.20;99.90;;;;;;5038597;28;20048;-68
2023/07/28 06:58:23;;;;;;;23.73;12.65;;;19.30;99.90;;;;;;5042539;28;20429;-69
2023/07/28 07:00:49;;;;;;;23.60;12.98;;;19.30;99.90;;;;;;5043683;28;20042;-69
2023/07/28 07:03:14;;;;;;;23.33;13.95;;;19.20;99.90;;;;;;5034491;28;20040;-69
2023/07/28 07:05:40;;;;;;;21.10;13.23;;;19.30;99.90;;;;;;5034290;28;20033;-69
2023/07/28 07:08:06;;;;;;;22.55;13.35;;;19.30;99.90;;;;;;5030202;28;20049;-69
2023/07/28 07:10:32;;;;;;;27.52;13.32;;;19.30;99.90;;;;;;5032610;28;20030;-69
2023/07/28 07:12:57;;;;;;;22.05;13.23;;;19.40;99.90;;;;;;5031017;28;20069;-70
2023/07/28 07:15:23;;;;;;;20.42;11.90;;;19.40;99.90;;;;;;5034294;28;20041;-69
2023/07/28 07:17:49;;;;;;;22.05;11.30;;;19.40;99.90;;;;;;5034356;28;20029;-70
2023/07/28 07:20:15;;;;;;;25.13;12.25;;;19.40;99.90;;;;;;5033484;28;20033;-69
2023/07/28 07:22:41;;;;;;;22.27;12.07;;;19.40;99.90;;;;;;5034444;28;20422;-69
2023/07/28 07:25:07;;;;;;;19.20;11.75;;;19.40;99.90;;;;;;5033968;28;20041;-68
2023/07/28 07:27:33;;;;;;;21.30;11.48;;;19.50;99.90;;;;;;5032464;28;20487;-72
2023/07/28 07:29:58;;;;;;;18.45;10.85;;;19.50;99.90;;;;;;5031925;28;20090;-71
2023/07/28 07:32:24;;;;;;;15.50;10.13;;;19.50;99.90;;;;;;5035166;28;20426;-72
2023/07/28 07:34:50;;;;;;;17.48;9.90;;;19.50;99.90;;;;;;5034376;28;20037;-72
2023/07/28 07:37:15;;;;;;;20.70;10.60;;;19.50;99.90;;;;;;5034149;28;20049;-72
2023/07/28 07:39:43;;;;;;;15.50;10.35;;;19.50;99.90;;;;;;5039917;28;20045;-72
2023/07/28 07:42:10;;;;;;;18.75;10.35;;;19.50;99.90;;;;;;5039834;28;20127;-72
2023/07/28 07:44:36;;;;;;;15.02;10.07;;;19.50;99.90;;;;;;5054440;28;20041;-72
2023/07/28 07:47:14;;;;;;;16.58;9.88;;;19.50;99.90;;;;;;5052596;28;20040;-72
2023/07/28 07:49:41;;;;;;;18.20;10.80;;;19.50;99.90;;;;;;5024123;28;20094;-72
2023/07/28 07:52:09;;;;;;;13.10;10.05;;;19.50;99.90;;;;;;5034949;28;20037;-72
2023/07/28 07:54:34;;;;;;;15.00;10.32;;;19.60;99.90;;;;;;5047218;28;20094;-72
2023/07/28 07:57:00;;;;;;;16.23;10.48;;;19.60;99.90;;;;;;5050832;28;20041;-72
2023/07/28 07:59:27;;;;;;;18.17;10.55;;;19.70;99.90;;;;;;5039571;28;20071;-71
2023/07/28 08:01:54;;;;;;;17.50;10.02;;;19.70;99.90;;;;;;5030729;28;20056;-72
2023/07/28 08:04:19;;;;;;;16.50;10.25;;;19.80;99.90;;;;;;5030083;28;20402;-72
2023/07/28 08:06:45;;;;;;;17.15;10.55;;;19.90;99.90;;;;;;5032901;28;20041;-72
2023/07/28 08:09:10;;;;;;;15.45;10.15;;;20.00;99.90;;;;;;5033118;28;20095;-72
2023/07/28 08:11:36;;;;;;;17.67;11.13;;;20.10;99.90;;;;;;5015536;28;20484;-72
2023/07/28 08:14:02;;;;;;;19.52;11.00;;;20.30;99.90;;;;;;5038397;28;20048;-72
2023/07/28 08:16:27;;;;;;;17.02;10.77;;;20.30;99.90;;;;;;5043757;28;20037;-72
2023/07/28 08:18:53;;;;;;;19.88;10.75;;;20.40;99.90;;;;;;5032681;28;20037;-72
2023/07/28 08:21:19;;;;;;;16.30;10.77;;;20.50;99.90;;;;;;5033105;28;20042;-72
2023/07/28 08:23:44;;;;;;;14.75;10.45;;;20.50;99.90;;;;;;5033665;28;20056;-72
2023/07/28 08:26:10;;;;;;;18.60;10.32;;;20.60;99.90;;;;;;5033445;28;20053;-72
2023/07/28 08:28:36;;;;;;;16.65;9.48;;;20.60;99.90;;;;;;5032598;28;20073;-72
2023/07/28 08:31:03;;;;;;;17.58;10.48;;;20.60;99.90;;;;;;5026586;28;20037;-72
2023/07/28 08:33:29;;;;;;;13.45;8.73;;;20.70;99.90;;;;;;5033045;28;20045;-72
2023/07/28 08:35:54;;;;;;;13.93;9.07;;;20.80;99.90;;;;;;5033529;28;20037;-72
2023/07/28 08:38:20;;;;;;;13.40;9.00;;;21.00;99.90;;;;;;5033798;28;20138;-72
2023/07/28 08:40:46;;;;;;;13.35;8.88;;;21.20;99.90;;;;;;5031316;28;20045;-73
2023/07/28 08:43:11;;;;;;;11.45;8.20;;;21.30;99.90;;;;;;5053163;28;20045;-72
2023/07/28 08:45:37;;;;;;;15.15;8.82;;;21.50;99.90;;;;;;5053165;28;20417;-72
2023/07/28 08:48:04;;;;;;;14.95;7.68;;;21.70;99.90;;;;;;5047777;28;20095;-72
2023/07/28 08:50:29;;;;;;;13.00;6.40;;;21.80;99.90;;;;;;5030825;28;20041;-72
2023/07/28 08:52:56;;;;;;;10.60;7.03;;;21.80;99.90;;;;;;5050314;28;20033;-72
2023/07/28 08:55:23;;;;;;;11.05;6.38;;;21.70;99.90;;;;;;5052957;28;20410;-72
2023/07/28 08:57:48;;;;;;;10.07;6.03;;;21.70;99.90;;;;;;5040964;28;20036;-72
2023/07/28 09:00:14;;;;;;;8.35;5.38;;;21.60;99.90;;;;;;5034190;28;20111;-72
2023/07/28 09:02:41;;;;;;;8.88;5.05;;;21.60;99.90;;;;;;5038321;28;20050;-72
2023/07/28 09:05:17;;;;;;;9.32;5.60;;;21.70;99.90;;;;;;5011597;28;20096;-72
2023/07/28 09:07:43;;;;;;;10.05;5.80;;;21.90;99.90;;;;;;5035805;28;20051;-72
2023/07/28 09:10:09;;;;;;;10.07;5.55;;;22.10;99.90;;;;;;5035437;28;20041;-72
2023/07/28 09:12:44;;;;;;;8.35;5.53;;;22.30;99.90;;;;;;5037298;28;20547;-72
2023/07/28 09:15:09;;;;;;;10.13;5.43;;;22.40;99.90;;;;;;5032698;28;20091;-72
2023/07/28 09:17:42;;;;;;;10.70;6.45;;;22.30;99.90;;;;;;5030813;28;20399;-73
2023/07/28 09:20:14;;;;;;;11.23;5.97;;;22.20;99.90;;;;;;5034973;28;20046;-73
2023/07/28 09:22:39;;;;;;;9.38;5.95;;;22.10;99.90;;;;;;5051789;28;20044;-72
2023/07/28 09:25:13;;;;;;;11.07;5.93;;;22.10;99.90;;;;;;5052133;28;20045;-72
2023/07/28 09:27:39;;;;;;;11.60;5.78;;;22.10;99.90;;;;;;5037918;28;20041;-72
2023/07/28 09:30:07;;;;;;;8.18;5.93;;;22.20;99.90;;;;;;5042742;28;20090;-72
2023/07/28 09:32:35;;;;;;;9.55;5.95;;;22.10;99.90;;;;;;5052609;28;20506;-72
2023/07/28 09:35:09;;;;;;;11.88;6.68;;;22.00;99.90;;;;;;5050218;28;20499;-72
2023/07/28 09:37:38;;;;;;;14.85;7.80;;;21.90;99.90;;;;;;5039811;28;20033;-72
2023/07/28 09:40:12;;;;;;;10.82;7.35;;;21.70;99.90;;;;;;5042657;28;20067;-72
2023/07/28 09:42:43;;;;;;;11.32;7.50;;;21.70;99.90;;;;;;5032172;28;20037;-72
2023/07/28 09:45:10;;;;;;;14.95;7.45;;;21.60;99.90;;;;;;5031868;28;20049;-72
2023/07/28 09:47:36;;;;;;;11.20;6.88;;;21.50;99.90;;;;;;5037916;28;20048;-72
2023/07/28 09:50:04;;;;;;;11.55;6.68;;;21.50;99.90;;;;;;5040429;28;20151;-72
2023/07/28 09:52:36;;;;;;;14.48;6.88;;;21.60;99.90;;;;;;5052418;28;20029;-72
2023/07/28 09:55:08;;;;;;;14.13;7.15;;;21.80;99.90;;;;;;5046102;28;20087;-72
2023/07/28 09:57:40;;;;;;;10.40;7.13;;;22.00;99.90;;;;;;5042922;28;20068;-72
2023/07/28 10:00:11;;;;;;;12.20;8.45;;;22.10;99.90;;;;;;5043758;28;20045;-73
2023/07/28 10:02:38;;;;;;;13.00;7.80;;;22.30;99.90;;;;;;5052488;28;20094;-72
2023/07/28 10:05:05;;;;;;;13.00;7.25;;;22.40;99.90;;;;;;5047089;28;20293;-73
2023/07/28 10:07:33;;;;;;;12.18;7.22;;;22.50;99.90;;;;;;5043435;28;20395;-72
2023/07/28 10:10:00;;;;;;;12.20;6.30;;;22.70;99.90;;;;;;5035777;28;20132;-73
2023/07/28 10:12:26;;;;;;;11.93;6.38;;;22.90;99.90;;;;;;5024965;28;20484;-73
2023/07/28 10:15:05;;;;;;;17.40;6.90;;;23.00;99.90;;;;;;5047343;28;20040;-73
2023/07/28 10:17:34;;;;;;;9.75;6.53;;;23.00;99.90;;;;;;5051843;28;20041;-72
2023/07/28 10:20:08;;;;;;;10.25;6.05;;;23.00;99.90;;;;;;5047343;28;20060;-73
2023/07/28 10:22:44;;;;;;;14.63;6.70;;;23.00;99.90;;;;;;5033047;28;20053;-72
2023/07/28 10:25:10;;;;;;;11.05;6.32;;;23.00;99.90;;;;;;5051074;28;20056;-72
2023/07/28 10:27:45;;;;;;;12.25;6.10;;;22.80;99.90;;;;;;5051634;28;20036;-73
2023/07/28 10:30:13;;;;;;;8.48;6.18;;;22.70;99.90;;;;;;5048350;28;20043;-72
2023/07/28 10:32:41;;;;;;;12.23;6.28;;;22.80;99.90;;;;;;5033327;28;20091;-71
2023/07/28 10:35:08;;;;;;;11.48;6.10;;;22.90;99.90;;;;;;5050322;28;20124;-73
2023/07/28 10:37:35;;;;;;;8.73;5.78;;;23.00;99.90;;;;;;5050333;28;20052;-73
2023/07/28 10:40:26;;;;;;;8.40;5.55;;;23.10;99.90;;;;;;5045851;28;20104;-74
2023/07/28 10:42:53;;;;;;;8.88;5.22;;;23.40;99.90;;;;;;5029913;28;20041;-73
2023/07/28 10:45:19;;;;;;;8.82;5.55;;;23.30;99.90;;;;;;5051279;28;20037;-73
2023/07/28 10:47:45;;;;;;;8.75;5.28;;;23.30;99.90;;;;;;5049337;28;20033;-73
2023/07/28 10:50:12;;;;;;;10.13;5.53;;;23.20;99.90;;;;;;5037163;28;20480;-73
2023/07/28 10:52:42;;;;;;;8.57;6.80;;;23.10;99.90;;;;;;5039090;28;20037;-73
2023/07/28 10:55:18;;;;;;;12.07;7.75;;;22.90;99.90;;;;;;5031382;28;20065;-73
2023/07/28 10:57:45;;;;;;;10.70;8.02;;;22.80;99.90;;;;;;5030554;28;20455;-73
2023/07/28 11:00:13;;;;;;;12.75;8.18;;;22.60;99.90;;;;;;5038719;28;20076;-74
2023/07/28 11:02:46;;;;;;;14.60;9.25;;;22.40;99.90;;;;;;5039357;28;20511;-72
2023/07/28 11:05:14;;;;;;;11.43;8.50;;;22.30;99.90;;;;;;5042412;28;20033;-73
2023/07/28 11:07:43;;;;;;;11.98;7.90;;;22.20;99.90;;;;;;5028396;28;20037;-73
2023/07/28 11:10:13;;;;;;;9.05;6.32;;;22.10;99.90;;;;;;5032961;28;20028;-73
2023/07/28 11:12:43;;;;;;;8.77;6.35;;;22.00;99.90;;;;;;5050970;28;20065;-72
2023/07/28 11:15:11;;;;;;;12.90;7.03;;;21.90;99.90;;;;;;5048500;28;20064;-72
2023/07/28 11:17:41;;;;;;;12.40;6.95;;;21.80;99.90;;;;;;5041240;28;20037;-72
2023/07/28 11:20:23;;;;;;;12.35;6.70;;;21.80;99.90;;;;;;5043619;28;20405;-73
2023/07/28 11:23:05;;;;;;;10.85;7.07;;;21.80;99.90;;;;;;5047787;28;20059;-73
2023/07/28 11:25:32;;;;;;;13.25;6.75;;;21.90;99.90;;;;;;5048558;28;20498;-72
2023/07/28 11:28:02;;;;;;;12.13;7.68;;;22.20;99.90;;;;;;5041158;28;20033;-72
2023/07/28 11:30:28;;;;;;;11.57;8.45;;;22.30;99.90;;;;;;5021445;28;20053;-73
2023/07/28 11:32:54;;;;;;;12.30;8.52;;;22.30;99.90;;;;;;5030620;28;20041;-75
2023/07/28 11:35:22;;;;;;;11.20;8.50;;;22.30;99.90;;;;;;5061882;22;20403;-71
2023/07/28 11:37:52;;;;;;;14.80;9.45;;;22.20;99.90;;;;;;5051149;28;20047;-71
2023/07/28 11:40:21;;;;;;;13.23;8.93;;;22.20;99.90;;;;;;5057147;28;20475;-71
2023/07/28 11:42:52;;;;;;;12.38;8.80;;;22.20;99.90;;;;;;5050083;28;20079;-71
2023/07/28 11:45:19;;;;;;;17.83;9.88;;;22.30;99.90;;;;;;5044829;28;20127;-70
2023/07/28 11:48:05;;;;;;;12.88;8.65;;;22.30;99.90;;;;;;5056221;28;20056;-70
2023/07/28 11:50:37;;;;;;;15.45;9.18;;;22.40;99.90;;;;;;5046917;28;20083;-70
2023/07/28 11:53:04;;;;;;;11.18;8.45;;;22.30;99.90;;;;;;5059902;28;20036;-70
2023/07/28 11:55:29;;;;;;;13.13;8.52;;;22.30;99.90;;;;;;5062852;28;20120;-70
2023/07/28 11:57:55;;;;;;;10.55;8.43;;;22.30;99.90;;;;;;5053039;28;20104;-69
2023/07/28 12:00:39;;;;;;;10.32;8.18;;;22.40;99.90;;;;;;5060827;28;20037;-70
2023/07/28 12:03:10;;;;;;;11.88;7.70;;;22.40;99.90;;;;;;5059246;28;20142;-70
2023/07/28 12:05:39;;;;;;;10.65;7.97;;;22.50;99.90;;;;;;5062431;28;20040;-69
2023/07/28 12:08:07;;;;;;;8.32;7.30;;;22.70;99.90;;;;;;5052499;28;20123;-69
2023/07/28 12:10:33;;;;;;;10.80;7.18;;;22.90;99.90;;;;;;5065877;28;20037;-70
2023/07/28 12:13:07;;;;;;;10.95;6.90;;;23.10;99.90;;;;;;5061543;28;20439;-70
2023/07/28 12:15:34;;;;;;;8.05;6.10;;;23.30;99.90;;;;;;5065604;28;20482;-69
2023/07/28 12:18:11;;;;;;;11.85;6.45;;;23.50;99.90;;;;;;5070888;28;20045;-70
2023/07/28 12:20:47;;;;;;;6.32;5.72;;;23.60;99.90;;;;;;5065296;28;20036;-68
2023/07/28 12:23:22;;;;;;;8.15;6.28;;;23.70;99.90;;;;;;5063010;28;20051;-68
2023/07/28 12:25:49;;;;;;;7.32;5.28;;;23.80;99.90;;;;;;5070706;28;20038;-68
2023/07/28 12:28:15;;;;;;;6.45;5.15;;;23.80;99.90;;;;;;5066169;28;20127;-68
2023/07/28 12:30:41;;;;;;;9.70;5.53;;;23.80;99.90;;;;;;5056479;28;20124;-68